Bangkok, Thailand
Current Conditions -  °F | °C
As of 2:00 AM on Saturday 22 Nov 2014 (Local Time) from VTBD Reporting Station
Clear Clear  
Wind Chill: 79°   Ceiling: Unl
Heat Index: 81°   Visibility: 5mi
Dew Point: 68°   Wind: 7mph
Humidity: 69%   Direction: 330°NNW
Pressure: 29.85"   Gusts: NA
Location:  13.73°N, 100.5°E
Report Text: VTBD 211900Z 33006KT 8000 NSC 26/20 Q1011 NOSIG
Loading
Personal Weather Stations






























Interactive Weather Map New forecast layout! Learn more

10-Day Weather Forecast

Advertisements
Track Severe Weather on mobile